sensor_id;sensor_type;location;lat;lon;timestamp;P1;durP1;ratioP1;P2;durP2;ratioP2
79268;SDS011;68714;48.586;7.772;2023-04-01T00:01:43;2.78;;;0.90;;
79268;SDS011;68714;48.586;7.772;2023-04-01T00:04:09;2.00;;;0.70;;
79268;SDS011;68714;48.586;7.772;2023-04-01T00:06:34;2.30;;;0.80;;
79268;SDS011;68714;48.586;7.772;2023-04-01T00:08:59;1.70;;;0.70;;
79268;SDS011;68714;48.586;7.772;2023-04-01T00:11:25;2.05;;;0.80;;
79268;SDS011;68714;48.586;7.772;2023-04-01T00:13:52;2.17;;;0.70;;
79268;SDS011;68714;48.586;7.772;2023-04-01T00:16:17;3.42;;;1.08;;
79268;SDS011;68714;48.586;7.772;2023-04-01T00:18:43;2.95;;;0.75;;
79268;SDS011;68714;48.586;7.772;2023-04-01T00:21:08;3.10;;;0.77;;
79268;SDS011;68714;48.586;7.772;2023-04-01T00:23:34;4.28;;;0.93;;
79268;SDS011;68714;48.586;7.772;2023-04-01T00:26:01;2.95;;;0.82;;
79268;SDS011;68714;48.586;7.772;2023-04-01T00:28:27;2.85;;;0.77;;
79268;SDS011;68714;48.586;7.772;2023-04-01T00:30:53;2.45;;;0.70;;
79268;SDS011;68714;48.586;7.772;2023-04-01T00:33:18;4.13;;;0.90;;
79268;SDS011;68714;48.586;7.772;2023-04-01T00:35:45;2.60;;;0.73;;
79268;SDS011;68714;48.586;7.772;2023-04-01T00:38:10;1.25;;;0.70;;
79268;SDS011;68714;48.586;7.772;2023-04-01T00:40:37;2.03;;;0.63;;
79268;SDS011;68714;48.586;7.772;2023-04-01T00:43:25;1.63;;;0.50;;
79268;SDS011;68714;48.586;7.772;2023-04-01T00:45:50;3.70;;;0.68;;
79268;SDS011;68714;48.586;7.772;2023-04-01T00:48:17;1.38;;;0.40;;
79268;SDS011;68714;48.586;7.772;2023-04-01T00:50:50;1.83;;;0.30;;
79268;SDS011;68714;48.586;7.772;2023-04-01T00:53:19;2.92;;;0.50;;
79268;SDS011;68714;48.586;7.772;2023-04-01T00:55:49;1.30;;;0.40;;
79268;SDS011;68714;48.586;7.772;2023-04-01T00:58:40;0.63;;;0.30;;
79268;SDS011;68714;48.586;7.772;2023-04-01T01:01:10;0.77;;;0.43;;
79268;SDS011;68714;48.586;7.772;2023-04-01T01:03:36;0.90;;;0.38;;
79268;SDS011;68714;48.586;7.772;2023-04-01T01:11:15;0.55;;;0.10;;
79268;SDS011;68714;48.586;7.772;2023-04-01T01:16:43;0.20;;;0.03;;
79268;SDS011;68714;48.586;7.772;2023-04-01T01:27:35;1.65;;;0.85;;
79268;SDS011;68714;48.586;7.772;2023-04-01T01:35:24;2.13;;;0.15;;
79268;SDS011;68714;48.586;7.772;2023-04-01T01:37:55;0.30;;;0.20;;
79268;SDS011;68714;48.586;7.772;2023-04-01T01:40:25;0.80;;;0.20;;
79268;SDS011;68714;48.586;7.772;2023-04-01T01:42:54;0.20;;;0.10;;
79268;SDS011;68714;48.586;7.772;2023-04-01T01:45:24;0.28;;;0.17;;
79268;SDS011;68714;48.586;7.772;2023-04-01T01:47:51;0.40;;;0.30;;
79268;SDS011;68714;48.586;7.772;2023-04-01T01:50:18;0.20;;;0.20;;
79268;SDS011;68714;48.586;7.772;2023-04-01T01:52:46;0.68;;;0.30;;
79268;SDS011;68714;48.586;7.772;2023-04-01T01:55:31;0.50;;;0.30;;
79268;SDS011;68714;48.586;7.772;2023-04-01T01:57:59;0.30;;;0.30;;
79268;SDS011;68714;48.586;7.772;2023-04-01T02:00:32;0.85;;;0.28;;
79268;SDS011;68714;48.586;7.772;2023-04-01T02:02:59;1.00;;;0.20;;
79268;SDS011;68714;48.586;7.772;2023-04-01T02:05:26;0.65;;;0.30;;
79268;SDS011;68714;48.586;7.772;2023-04-01T02:07:59;1.25;;;0.28;;
79268;SDS011;68714;48.586;7.772;2023-04-01T02:10:31;0.52;;;0.30;;
79268;SDS011;68714;48.586;7.772;2023-04-01T02:13:01;0.63;;;0.25;;
79268;SDS011;68714;48.586;7.772;2023-04-01T02:15:40;0.25;;;0.17;;
79268;SDS011;68714;48.586;7.772;2023-04-01T02:18:10;1.48;;;0.40;;
79268;SDS011;68714;48.586;7.772;2023-04-01T02:20:38;0.85;;;0.30;;
79268;SDS011;68714;48.586;7.772;2023-04-01T02:23:04;0.85;;;0.30;;
79268;SDS011;68714;48.586;7.772;2023-04-01T02:25:33;1.13;;;0.30;;
79268;SDS011;68714;48.586;7.772;2023-04-01T02:28:01;1.23;;;0.30;;
79268;SDS011;68714;48.586;7.772;2023-04-01T02:30:29;1.02;;;0.20;;
79268;SDS011;68714;48.586;7.772;2023-04-01T02:32:58;0.47;;;0.22;;
79268;SDS011;68714;48.586;7.772;2023-04-01T02:35:24;0.70;;;0.20;;
79268;SDS011;68714;48.586;7.772;2023-04-01T02:37:51;0.90;;;0.30;;
79268;SDS011;68714;48.586;7.772;2023-04-01T02:40:17;1.52;;;0.38;;
79268;SDS011;68714;48.586;7.772;2023-04-01T02:42:43;2.42;;;0.40;;
79268;SDS011;68714;48.586;7.772;2023-04-01T02:45:09;0.85;;;0.17;;
79268;SDS011;68714;48.586;7.772;2023-04-01T02:47:35;1.67;;;0.30;;
79268;SDS011;68714;48.586;7.772;2023-04-01T02:50:01;1.83;;;0.30;;
79268;SDS011;68714;48.586;7.772;2023-04-01T02:52:27;0.98;;;0.25;;
79268;SDS011;68714;48.586;7.772;2023-04-01T02:54:54;1.58;;;0.40;;
79268;SDS011;68714;48.586;7.772;2023-04-01T02:57:20;2.90;;;0.50;;
79268;SDS011;68714;48.586;7.772;2023-04-01T02:59:45;0.95;;;0.47;;
79268;SDS011;68714;48.586;7.772;2023-04-01T03:02:11;4.18;;;0.60;;
79268;SDS011;68714;48.586;7.772;2023-04-01T03:04:36;2.92;;;0.60;;
79268;SDS011;68714;48.586;7.772;2023-04-01T03:07:02;3.20;;;0.60;;
79268;SDS011;68714;48.586;7.772;2023-04-01T03:09:28;2.83;;;0.60;;
79268;SDS011;68714;48.586;7.772;2023-04-01T03:11:53;1.13;;;0.40;;
79268;SDS011;68714;48.586;7.772;2023-04-01T03:14:19;2.05;;;0.60;;
79268;SDS011;68714;48.586;7.772;2023-04-01T03:16:44;5.25;;;0.75;;
79268;SDS011;68714;48.586;7.772;2023-04-01T03:19:10;3.70;;;0.80;;
79268;SDS011;68714;48.586;7.772;2023-04-01T03:21:35;3.40;;;1.10;;
79268;SDS011;68714;48.586;7.772;2023-04-01T03:24:01;5.00;;;0.98;;
79268;SDS011;68714;48.586;7.772;2023-04-01T03:26:26;4.00;;;0.73;;
79268;SDS011;68714;48.586;7.772;2023-04-01T03:28:52;4.70;;;1.08;;
79268;SDS011;68714;48.586;7.772;2023-04-01T03:31:18;3.45;;;0.80;;
79268;SDS011;68714;48.586;7.772;2023-04-01T03:33:44;4.18;;;1.20;;
79268;SDS011;68714;48.586;7.772;2023-04-01T03:36:10;2.55;;;0.70;;
79268;SDS011;68714;48.586;7.772;2023-04-01T03:38:37;2.60;;;0.70;;
79268;SDS011;68714;48.586;7.772;2023-04-01T03:41:03;6.07;;;1.05;;
79268;SDS011;68714;48.586;7.772;2023-04-01T03:43:29;5.05;;;1.00;;
79268;SDS011;68714;48.586;7.772;2023-04-01T03:45:54;4.10;;;1.05;;
79268;SDS011;68714;48.586;7.772;2023-04-01T03:48:22;4.30;;;1.20;;
79268;SDS011;68714;48.586;7.772;2023-04-01T03:50:47;3.30;;;1.10;;
79268;SDS011;68714;48.586;7.772;2023-04-01T03:53:13;4.95;;;1.00;;
79268;SDS011;68714;48.586;7.772;2023-04-01T03:55:40;4.55;;;1.05;;
79268;SDS011;68714;48.586;7.772;2023-04-01T03:58:06;3.50;;;0.80;;
79268;SDS011;68714;48.586;7.772;2023-04-01T04:00:32;3.35;;;0.80;;
79268;SDS011;68714;48.586;7.772;2023-04-01T04:02:58;4.03;;;0.95;;
79268;SDS011;68714;48.586;7.772;2023-04-01T04:05:24;3.03;;;0.85;;
79268;SDS011;68714;48.586;7.772;2023-04-01T04:07:51;3.70;;;1.02;;
79268;SDS011;68714;48.586;7.772;2023-04-01T04:10:17;4.22;;;1.00;;
79268;SDS011;68714;48.586;7.772;2023-04-01T04:12:43;4.10;;;1.08;;
79268;SDS011;68714;48.586;7.772;2023-04-01T04:15:08;2.88;;;0.70;;
79268;SDS011;68714;48.586;7.772;2023-04-01T04:17:34;3.22;;;0.77;;
79268;SDS011;68714;48.586;7.772;2023-04-01T04:20:00;2.95;;;0.63;;
79268;SDS011;68714;48.586;7.772;2023-04-01T04:22:25;3.15;;;0.90;;
79268;SDS011;68714;48.586;7.772;2023-04-01T04:24:51;1.95;;;0.80;;
79268;SDS011;68714;48.586;7.772;2023-04-01T04:27:16;3.03;;;0.75;;
79268;SDS011;68714;48.586;7.772;2023-04-01T04:29:42;4.00;;;0.60;;
79268;SDS011;68714;48.586;7.772;2023-04-01T04:32:08;3.97;;;0.80;;
79268;SDS011;68714;48.586;7.772;2023-04-01T04:34:33;4.18;;;0.68;;
79268;SDS011;68714;48.586;7.772;2023-04-01T04:36:59;2.95;;;0.65;;
79268;SDS011;68714;48.586;7.772;2023-04-01T04:39:24;2.22;;;0.50;;
79268;SDS011;68714;48.586;7.772;2023-04-01T04:41:50;2.53;;;0.65;;
79268;SDS011;68714;48.586;7.772;2023-04-01T04:44:15;0.98;;;0.30;;
79268;SDS011;68714;48.586;7.772;2023-04-01T04:46:41;1.27;;;0.30;;
79268;SDS011;68714;48.586;7.772;2023-04-01T04:49:06;0.40;;;0.30;;
79268;SDS011;68714;48.586;7.772;2023-04-01T04:51:32;1.70;;;0.30;;
79268;SDS011;68714;48.586;7.772;2023-04-01T04:54:00;0.55;;;0.30;;
79268;SDS011;68714;48.586;7.772;2023-04-01T04:56:26;0.98;;;0.22;;
79268;SDS011;68714;48.586;7.772;2023-04-01T04:58:52;1.00;;;0.30;;
79268;SDS011;68714;48.586;7.772;2023-04-01T05:01:17;1.38;;;0.30;;
79268;SDS011;68714;48.586;7.772;2023-04-01T05:03:43;1.00;;;0.30;;
79268;SDS011;68714;48.586;7.772;2023-04-01T05:06:10;2.28;;;0.50;;
79268;SDS011;68714;48.586;7.772;2023-04-01T05:08:37;1.55;;;0.55;;
79268;SDS011;68714;48.586;7.772;2023-04-01T05:11:06;1.17;;;0.50;;
79268;SDS011;68714;48.586;7.772;2023-04-01T05:13:35;2.47;;;0.60;;
79268;SDS011;68714;48.586;7.772;2023-04-01T05:16:01;2.78;;;0.73;;
79268;SDS011;68714;48.586;7.772;2023-04-01T05:18:26;3.08;;;1.00;;
79268;SDS011;68714;48.586;7.772;2023-04-01T05:20:52;3.17;;;0.70;;
79268;SDS011;68714;48.586;7.772;2023-04-01T05:23:19;1.42;;;0.43;;
79268;SDS011;68714;48.586;7.772;2023-04-01T05:25:47;1.23;;;0.60;;
79268;SDS011;68714;48.586;7.772;2023-04-01T05:28:13;2.70;;;0.68;;
79268;SDS011;68714;48.586;7.772;2023-04-01T05:30:40;2.00;;;0.60;;
79268;SDS011;68714;48.586;7.772;2023-04-01T05:33:06;3.35;;;0.70;;
79268;SDS011;68714;48.586;7.772;2023-04-01T05:35:32;1.88;;;0.43;;
79268;SDS011;68714;48.586;7.772;2023-04-01T05:37:58;2.38;;;0.63;;
79268;SDS011;68714;48.586;7.772;2023-04-01T05:40:23;2.47;;;0.57;;
79268;SDS011;68714;48.586;7.772;2023-04-01T05:42:49;1.65;;;0.43;;
79268;SDS011;68714;48.586;7.772;2023-04-01T05:45:14;2.50;;;0.25;;
79268;SDS011;68714;48.586;7.772;2023-04-01T05:47:40;4.18;;;0.75;;
79268;SDS011;68714;48.586;7.772;2023-04-01T05:50:07;1.73;;;0.60;;
79268;SDS011;68714;48.586;7.772;2023-04-01T05:52:36;1.43;;;0.40;;
79268;SDS011;68714;48.586;7.772;2023-04-01T05:55:02;1.90;;;0.43;;
79268;SDS011;68714;48.586;7.772;2023-04-01T05:57:28;3.05;;;0.43;;
79268;SDS011;68714;48.586;7.772;2023-04-01T05:59:53;3.42;;;0.65;;
79268;SDS011;68714;48.586;7.772;2023-04-01T06:02:19;1.88;;;0.70;;
79268;SDS011;68714;48.586;7.772;2023-04-01T06:04:45;1.95;;;0.60;;
79268;SDS011;68714;48.586;7.772;2023-04-01T06:07:11;2.70;;;0.70;;
79268;SDS011;68714;48.586;7.772;2023-04-01T06:09:38;2.25;;;0.60;;
79268;SDS011;68714;48.586;7.772;2023-04-01T06:20:12;2.75;;;0.60;;
79268;SDS011;68714;48.586;7.772;2023-04-01T06:42:04;2.92;;;0.60;;
79268;SDS011;68714;48.586;7.772;2023-04-01T06:44:46;2.22;;;0.70;;
79268;SDS011;68714;48.586;7.772;2023-04-01T06:55:47;3.55;;;0.90;;
79268;SDS011;68714;48.586;7.772;2023-04-01T06:58:21;5.13;;;0.75;;
79268;SDS011;68714;48.586;7.772;2023-04-01T07:00:50;6.55;;;1.08;;
79268;SDS011;68714;48.586;7.772;2023-04-01T07:06:04;3.50;;;0.75;;
79268;SDS011;68714;48.586;7.772;2023-04-01T07:08:35;2.17;;;0.65;;
79268;SDS011;68714;48.586;7.772;2023-04-01T07:11:22;3.15;;;1.02;;
79268;SDS011;68714;48.586;7.772;2023-04-01T07:19:42;3.78;;;1.10;;
79268;SDS011;68714;48.586;7.772;2023-04-01T07:22:32;5.65;;;0.93;;
79268;SDS011;68714;48.586;7.772;2023-04-01T07:25:01;4.55;;;0.95;;
79268;SDS011;68714;48.586;7.772;2023-04-01T07:27:28;3.90;;;0.93;;
79268;SDS011;68714;48.586;7.772;2023-04-01T07:29:55;2.50;;;0.98;;
79268;SDS011;68714;48.586;7.772;2023-04-01T07:32:33;3.53;;;0.95;;
79268;SDS011;68714;48.586;7.772;2023-04-01T07:35:12;3.58;;;1.02;;
79268;SDS011;68714;48.586;7.772;2023-04-01T07:40:54;2.67;;;0.80;;
79268;SDS011;68714;48.586;7.772;2023-04-01T07:49:06;2.22;;;0.70;;
79268;SDS011;68714;48.586;7.772;2023-04-01T08:04:23;3.45;;;0.90;;
79268;SDS011;68714;48.586;7.772;2023-04-01T08:07:07;1.25;;;0.52;;
79268;SDS011;68714;48.586;7.772;2023-04-01T08:15:02;3.97;;;0.88;;
79268;SDS011;68714;48.586;7.772;2023-04-01T08:17:43;4.25;;;0.80;;
79268;SDS011;68714;48.586;7.772;2023-04-01T08:20:18;2.72;;;0.50;;
79268;SDS011;68714;48.586;7.772;2023-04-01T08:25:46;3.40;;;0.70;;
79268;SDS011;68714;48.586;7.772;2023-04-01T08:28:36;1.25;;;0.50;;
79268;SDS011;68714;48.586;7.772;2023-04-01T08:33:37;1.17;;;0.40;;
79268;SDS011;68714;48.586;7.772;2023-04-01T08:38:48;2.03;;;0.73;;
79268;SDS011;68714;48.586;7.772;2023-04-01T08:47:01;2.60;;;0.77;;
79268;SDS011;68714;48.586;7.772;2023-04-01T09:03:52;2.97;;;0.57;;
79268;SDS011;68714;48.586;7.772;2023-04-01T09:06:33;0.98;;;0.57;;
79268;SDS011;68714;48.586;7.772;2023-04-01T09:28:55;1.65;;;0.70;;
79268;SDS011;68714;48.586;7.772;2023-04-01T09:44:35;1.80;;;0.45;;
79268;SDS011;68714;48.586;7.772;2023-04-01T10:14:01;0.70;;;0.50;;
79268;SDS011;68714;48.586;7.772;2023-04-01T10:27:55;0.50;;;0.30;;
79268;SDS011;68714;48.586;7.772;2023-04-01T10:36:40;1.02;;;0.50;;
79268;SDS011;68714;48.586;7.772;2023-04-01T10:39:29;0.60;;;0.40;;
79268;SDS011;68714;48.586;7.772;2023-04-01T10:53:31;0.85;;;0.40;;
79268;SDS011;68714;48.586;7.772;2023-04-01T11:16:30;0.68;;;0.45;;
79268;SDS011;68714;48.586;7.772;2023-04-01T11:24:50;0.73;;;0.40;;
79268;SDS011;68714;48.586;7.772;2023-04-01T11:36:02;0.70;;;0.35;;
79268;SDS011;68714;48.586;7.772;2023-04-01T11:41:46;1.58;;;0.40;;
79268;SDS011;68714;48.586;7.772;2023-04-01T11:44:35;0.68;;;0.35;;
79268;SDS011;68714;48.586;7.772;2023-04-01T12:09:32;2.90;;;0.40;;
79268;SDS011;68714;48.586;7.772;2023-04-01T12:31:56;1.42;;;0.70;;
79268;SDS011;68714;48.586;7.772;2023-04-01T12:37:17;0.55;;;0.35;;
79268;SDS011;68714;48.586;7.772;2023-04-01T12:51:10;0.73;;;0.25;;
79268;SDS011;68714;48.586;7.772;2023-04-01T13:00:02;0.98;;;0.30;;
79268;SDS011;68714;48.586;7.772;2023-04-01T13:02:39;0.40;;;0.40;;
79268;SDS011;68714;48.586;7.772;2023-04-01T13:05:18;0.40;;;0.40;;
79268;SDS011;68714;48.586;7.772;2023-04-01T13:16:24;0.95;;;0.40;;
79268;SDS011;68714;48.586;7.772;2023-04-01T13:18:54;0.40;;;0.30;;
79268;SDS011;68714;48.586;7.772;2023-04-01T13:26:48;1.02;;;0.50;;
79268;SDS011;68714;48.586;7.772;2023-04-01T13:38:43;1.40;;;0.50;;
79268;SDS011;68714;48.586;7.772;2023-04-01T13:50:04;1.50;;;0.40;;
79268;SDS011;68714;48.586;7.772;2023-04-01T13:55:25;1.23;;;0.40;;
79268;SDS011;68714;48.586;7.772;2023-04-01T13:58:14;1.17;;;0.40;;
79268;SDS011;68714;48.586;7.772;2023-04-01T14:00:55;0.55;;;0.40;;
79268;SDS011;68714;48.586;7.772;2023-04-01T14:03:40;0.35;;;0.30;;
79268;SDS011;68714;48.586;7.772;2023-04-01T14:09:19;1.17;;;0.40;;
79268;SDS011;68714;48.586;7.772;2023-04-01T14:15:14;0.95;;;0.40;;
79268;SDS011;68714;48.586;7.772;2023-04-01T14:18:11;1.17;;;0.40;;
79268;SDS011;68714;48.586;7.772;2023-04-01T14:26:21;1.02;;;0.40;;
79268;SDS011;68714;48.586;7.772;2023-04-01T14:40:55;1.17;;;0.40;;
79268;SDS011;68714;48.586;7.772;2023-04-01T14:43:46;1.27;;;0.40;;
79268;SDS011;68714;48.586;7.772;2023-04-01T14:48:53;2.35;;;0.60;;
79268;SDS011;68714;48.586;7.772;2023-04-01T14:51:33;1.23;;;0.63;;
79268;SDS011;68714;48.586;7.772;2023-04-01T14:56:43;1.13;;;0.43;;
79268;SDS011;68714;48.586;7.772;2023-04-01T15:01:50;2.42;;;0.88;;
79268;SDS011;68714;48.586;7.772;2023-04-01T15:20:56;1.55;;;0.63;;
79268;SDS011;68714;48.586;7.772;2023-04-01T15:34:59;2.47;;;0.82;;
79268;SDS011;68714;48.586;7.772;2023-04-01T15:37:41;3.53;;;0.70;;
79268;SDS011;68714;48.586;7.772;2023-04-01T15:40:29;2.70;;;0.85;;
79268;SDS011;68714;48.586;7.772;2023-04-01T15:45:52;1.98;;;0.77;;
79268;SDS011;68714;48.586;7.772;2023-04-01T15:48:31;1.73;;;0.60;;
79268;SDS011;68714;48.586;7.772;2023-04-01T15:56:44;2.03;;;0.50;;
79268;SDS011;68714;48.586;7.772;2023-04-01T16:01:57;2.08;;;1.35;;
79268;SDS011;68714;48.586;7.772;2023-04-01T16:23:16;1.70;;;0.70;;
79268;SDS011;68714;48.586;7.772;2023-04-01T16:25:44;2.17;;;0.60;;
79268;SDS011;68714;48.586;7.772;2023-04-01T16:28:50;2.10;;;0.82;;
79268;SDS011;68714;48.586;7.772;2023-04-01T16:36:47;1.42;;;0.65;;
79268;SDS011;68714;48.586;7.772;2023-04-01T16:39:22;3.60;;;0.90;;
79268;SDS011;68714;48.586;7.772;2023-04-01T18:01:16;3.97;;;1.40;;
79268;SDS011;68714;48.586;7.772;2023-04-01T18:06:36;4.13;;;1.90;;
79268;SDS011;68714;48.586;7.772;2023-04-01T18:12:24;4.68;;;1.60;;
79268;SDS011;68714;48.586;7.772;2023-04-01T18:17:42;3.88;;;1.40;;
79268;SDS011;68714;48.586;7.772;2023-04-01T18:25:46;4.07;;;1.15;;
79268;SDS011;68714;48.586;7.772;2023-04-01T18:33:32;1.90;;;0.85;;
79268;SDS011;68714;48.586;7.772;2023-04-01T18:39:17;1.67;;;0.82;;
79268;SDS011;68714;48.586;7.772;2023-04-01T18:51:10;1.65;;;0.75;;
79268;SDS011;68714;48.586;7.772;2023-04-01T18:56:44;2.17;;;0.95;;
79268;SDS011;68714;48.586;7.772;2023-04-01T18:59:25;2.33;;;1.20;;
79268;SDS011;68714;48.586;7.772;2023-04-01T19:04:39;3.55;;;1.65;;
79268;SDS011;68714;48.586;7.772;2023-04-01T19:08:12;4.70;;;1.95;;
79268;SDS011;68714;48.586;7.772;2023-04-01T19:13:01;3.10;;;1.60;;
79268;SDS011;68714;48.586;7.772;2023-04-01T19:18:25;2.72;;;1.20;;
79268;SDS011;68714;48.586;7.772;2023-04-01T19:21:21;2.30;;;0.93;;
79268;SDS011;68714;48.586;7.772;2023-04-01T19:24:04;2.03;;;1.20;;
79268;SDS011;68714;48.586;7.772;2023-04-01T19:40:09;0.60;;;0.50;;
79268;SDS011;68714;48.586;7.772;2023-04-01T19:43:18;1.42;;;0.57;;
79268;SDS011;68714;48.586;7.772;2023-04-01T19:53:35;2.60;;;0.98;;
79268;SDS011;68714;48.586;7.772;2023-04-01T19:56:16;1.75;;;0.85;;
79268;SDS011;68714;48.586;7.772;2023-04-01T19:59:04;2.30;;;1.23;;
79268;SDS011;68714;48.586;7.772;2023-04-01T20:01:36;2.22;;;0.98;;
79268;SDS011;68714;48.586;7.772;2023-04-01T20:04:14;1.35;;;0.75;;
79268;SDS011;68714;48.586;7.772;2023-04-01T20:20:21;1.67;;;1.00;;
79268;SDS011;68714;48.586;7.772;2023-04-01T20:22:55;1.95;;;0.93;;
79268;SDS011;68714;48.586;7.772;2023-04-01T20:25:30;1.20;;;0.80;;
79268;SDS011;68714;48.586;7.772;2023-04-01T20:30:50;3.47;;;1.30;;
79268;SDS011;68714;48.586;7.772;2023-04-01T20:33:45;2.10;;;0.80;;
79268;SDS011;68714;48.586;7.772;2023-04-01T20:39:34;1.65;;;0.73;;
79268;SDS011;68714;48.586;7.772;2023-04-01T20:42:46;2.00;;;0.80;;
79268;SDS011;68714;48.586;7.772;2023-04-01T20:53:36;1.38;;;0.70;;
79268;SDS011;68714;48.586;7.772;2023-04-01T20:56:42;1.85;;;0.70;;
79268;SDS011;68714;48.586;7.772;2023-04-01T21:04:27;0.75;;;0.60;;
79268;SDS011;68714;48.586;7.772;2023-04-01T21:07:22;0.68;;;0.57;;
79268;SDS011;68714;48.586;7.772;2023-04-01T21:13:01;0.90;;;0.50;;
79268;SDS011;68714;48.586;7.772;2023-04-01T21:26:46;1.00;;;0.50;;
79268;SDS011;68714;48.586;7.772;2023-04-01T21:29:37;0.90;;;0.60;;
79268;SDS011;68714;48.586;7.772;2023-04-01T21:32:26;1.45;;;0.68;;
79268;SDS011;68714;48.586;7.772;2023-04-01T21:42:26;0.90;;;0.45;;
79268;SDS011;68714;48.586;7.772;2023-04-01T21:45:20;1.08;;;0.57;;
79268;SDS011;68714;48.586;7.772;2023-04-01T22:01:26;1.52;;;0.50;;
79268;SDS011;68714;48.586;7.772;2023-04-01T22:04:18;1.58;;;0.63;;
79268;SDS011;68714;48.586;7.772;2023-04-01T22:06:56;1.63;;;0.68;;
79268;SDS011;68714;48.586;7.772;2023-04-01T22:09:34;2.42;;;0.88;;
79268;SDS011;68714;48.586;7.772;2023-04-01T22:12:30;1.23;;;0.60;;
79268;SDS011;68714;48.586;7.772;2023-04-01T22:15:20;2.50;;;0.50;;
79268;SDS011;68714;48.586;7.772;2023-04-01T22:20:37;1.35;;;0.50;;
79268;SDS011;68714;48.586;7.772;2023-04-01T22:26:25;0.93;;;0.50;;
79268;SDS011;68714;48.586;7.772;2023-04-01T22:29:14;0.45;;;0.40;;
79268;SDS011;68714;48.586;7.772;2023-04-01T22:34:37;0.80;;;0.50;;
79268;SDS011;68714;48.586;7.772;2023-04-01T22:42:56;1.88;;;0.60;;
79268;SDS011;68714;48.586;7.772;2023-04-01T22:48:06;0.52;;;0.40;;
79268;SDS011;68714;48.586;7.772;2023-04-01T22:50:57;1.45;;;0.50;;
79268;SDS011;68714;48.586;7.772;2023-04-01T22:56:36;1.35;;;0.47;;
79268;SDS011;68714;48.586;7.772;2023-04-01T23:01:48;0.73;;;0.40;;
79268;SDS011;68714;48.586;7.772;2023-04-01T23:04:21;1.13;;;0.55;;
79268;SDS011;68714;48.586;7.772;2023-04-01T23:06:56;0.40;;;0.40;;
79268;SDS011;68714;48.586;7.772;2023-04-01T23:09:28;1.13;;;0.60;;
79268;SDS011;68714;48.586;7.772;2023-04-01T23:14:39;0.90;;;0.40;;
79268;SDS011;68714;48.586;7.772;2023-04-01T23:20:27;1.53;;;0.60;;
79268;SDS011;68714;48.586;7.772;2023-04-01T23:31:24;0.40;;;0.38;;
79268;SDS011;68714;48.586;7.772;2023-04-01T23:33:57;1.02;;;0.50;;
79268;SDS011;68714;48.586;7.772;2023-04-01T23:36:25;1.17;;;0.50;;
79268;SDS011;68714;48.586;7.772;2023-04-01T23:38:51;1.20;;;0.52;;
79268;SDS011;68714;48.586;7.772;2023-04-01T23:41:19;2.17;;;0.50;;
79268;SDS011;68714;48.586;7.772;2023-04-01T23:44:21;1.95;;;0.60;;
79268;SDS011;68714;48.586;7.772;2023-04-01T23:46:40;1.42;;;0.70;;
79268;SDS011;68714;48.586;7.772;2023-04-01T23:49:12;1.27;;;0.60;;
79268;SDS011;68714;48.586;7.772;2023-04-01T23:51:49;0.70;;;0.45;;
79268;SDS011;68714;48.586;7.772;2023-04-01T23:54:38;0.77;;;0.30;;
79268;SDS011;68714;48.586;7.772;2023-04-01T23:59:39;0.68;;;0.30;;
